createdAt,value
2022-09-03T00:01:24.127Z,16.25
2022-09-03T00:04:03.990Z,13.25
2022-09-03T00:06:42.316Z,17.25
2022-09-03T00:09:33.018Z,18.00
2022-09-03T00:12:11.267Z,14.50
2022-09-03T00:14:43.290Z,12.00
2022-09-03T00:17:40.010Z,13.75
2022-09-03T00:20:17.147Z,16.75
2022-09-03T00:22:49.339Z,16.00
2022-09-03T00:25:26.785Z,13.00
2022-09-03T00:27:57.800Z,15.00
2022-09-03T00:30:24.667Z,18.75
2022-09-03T00:33:04.030Z,15.50
2022-09-03T00:35:39.703Z,12.00
2022-09-03T00:38:06.899Z,10.00
2022-09-03T00:40:51.756Z,16.50
2022-09-03T00:43:40.413Z,17.00
2022-09-03T00:46:19.614Z,15.00
2022-09-03T00:49:15.356Z,15.50
2022-09-03T00:52:01.206Z,14.75
2022-09-03T00:54:43.886Z,15.25
2022-09-03T00:57:34.879Z,14.00
2022-09-03T01:00:05.038Z,15.00
2022-09-03T01:02:47.280Z,15.00
2022-09-03T01:05:42.700Z,14.25
2022-09-03T01:08:49.373Z,12.00
2022-09-03T01:11:47.077Z,12.50
2022-09-03T01:14:59.330Z,14.00
2022-09-03T01:17:35.068Z,14.00
2022-09-03T01:20:13.387Z,15.00
2022-09-03T01:23:03.587Z,13.00
2022-09-03T01:25:51.268Z,16.00
2022-09-03T01:28:44.155Z,19.00
2022-09-03T01:31:28.812Z,14.50
2022-09-03T01:33:55.719Z,15.00
2022-09-03T01:36:53.723Z,14.00
2022-09-03T01:39:38.806Z,17.00
2022-09-03T01:42:37.933Z,18.00
2022-09-03T01:45:25.090Z,13.75
2022-09-03T01:47:51.893Z,15.25
2022-09-03T01:50:50.137Z,16.00
2022-09-03T01:53:32.367Z,13.75
2022-09-03T01:56:29.003Z,12.00
2022-09-03T01:59:09.606Z,11.50
2022-09-03T02:01:49.967Z,10.00
2022-09-03T02:04:23.600Z,10.50
2022-09-03T02:06:56.365Z,15.00
2022-09-03T02:09:23.613Z,15.00
2022-09-03T02:12:03.557Z,16.00
2022-09-03T02:14:31.430Z,13.75
2022-09-03T02:17:01.968Z,15.00
2022-09-03T02:19:31.039Z,16.00
2022-09-03T02:21:58.746Z,17.00
2022-09-03T02:24:26.301Z,14.50
2022-09-03T02:26:53.698Z,17.25
2022-09-03T02:29:21.452Z,15.50
2022-09-03T02:31:48.308Z,13.00
2022-09-03T02:34:15.422Z,13.25
2022-09-03T02:36:45.576Z,13.00
2022-09-03T02:39:14.146Z,15.50
2022-09-03T02:41:41.311Z,15.00
2022-09-03T02:44:21.966Z,13.00
2022-09-03T02:47:07.787Z,13.00
2022-09-03T02:49:35.511Z,12.00
2022-09-03T02:52:05.841Z,15.00
2022-09-03T02:54:33.809Z,15.00
2022-09-03T02:57:00.703Z,16.00
2022-09-03T02:59:27.592Z,17.00
2022-09-03T03:01:55.533Z,19.50
2022-09-03T03:04:22.770Z,19.00
2022-09-03T03:06:49.672Z,22.00
2022-09-03T03:09:19.412Z,22.50
2022-09-03T03:11:48.812Z,21.00
2022-09-03T03:14:15.671Z,22.00
2022-09-03T03:16:42.648Z,22.00
2022-09-03T03:19:09.850Z,22.00
2022-09-03T03:21:36.855Z,23.00
2022-09-03T03:24:04.166Z,24.00
2022-09-03T03:26:31.918Z,25.00
2022-09-03T03:29:00.899Z,24.00
2022-09-03T03:31:27.899Z,24.00
2022-09-03T03:33:56.641Z,25.00
2022-09-03T03:36:25.897Z,25.00
2022-09-03T03:38:58.209Z,25.00
2022-09-03T03:41:30.405Z,25.00
2022-09-03T03:44:00.283Z,24.00
2022-09-03T03:46:31.317Z,26.00
2022-09-03T03:48:58.401Z,25.00
2022-09-03T03:51:25.848Z,25.00
2022-09-03T03:53:59.369Z,24.00
2022-09-03T03:56:29.029Z,24.00
2022-09-03T03:58:56.385Z,26.00
2022-09-03T04:01:26.518Z,25.00
2022-09-03T04:03:56.252Z,24.00
2022-09-03T04:06:24.167Z,24.00
2022-09-03T04:08:51.573Z,25.25
2022-09-03T04:11:21.384Z,24.00
2022-09-03T04:13:49.502Z,25.00
2022-09-03T04:16:19.403Z,23.00
2022-09-03T04:18:47.463Z,24.00
2022-09-03T04:21:20.153Z,25.00
2022-09-03T04:23:48.488Z,24.00
2022-09-03T04:26:19.325Z,23.50
2022-09-03T04:28:46.304Z,23.00
2022-09-03T04:31:16.202Z,24.00
2022-09-03T04:33:46.320Z,23.00
2022-09-03T04:36:14.200Z,24.00
2022-09-03T04:38:43.165Z,23.00
2022-09-03T04:41:15.481Z,22.00
2022-09-03T04:43:42.737Z,22.00
2022-09-03T04:46:16.340Z,22.00
2022-09-03T04:48:48.936Z,22.00
2022-09-03T04:51:18.931Z,22.00
2022-09-03T04:53:48.299Z,21.00
2022-09-03T04:56:16.422Z,22.00
2022-09-03T04:58:44.203Z,23.00
2022-09-03T05:01:13.098Z,22.00
2022-09-03T05:03:40.019Z,20.00
2022-09-03T05:06:07.428Z,20.00
2022-09-03T05:08:34.681Z,21.00
2022-09-03T05:11:01.665Z,22.00
2022-09-03T05:13:28.584Z,22.00
2022-09-03T05:16:06.213Z,20.00
2022-09-03T05:18:33.854Z,20.75
2022-09-03T05:21:02.594Z,20.50
2022-09-03T05:23:34.279Z,23.00
2022-09-03T05:26:14.652Z,22.00
2022-09-03T05:28:43.387Z,22.00
2022-09-03T05:31:15.881Z,22.00
2022-09-03T05:33:45.219Z,22.00
2022-09-03T05:36:14.818Z,23.00
2022-09-03T05:38:42.404Z,24.00
2022-09-03T05:41:12.213Z,23.00
2022-09-03T05:43:39.549Z,22.75
2022-09-03T05:46:15.133Z,23.00
2022-09-03T05:48:42.059Z,24.00
2022-09-03T05:51:10.114Z,24.00
2022-09-03T05:53:39.414Z,23.00
2022-09-03T05:56:25.203Z,22.00
2022-09-03T05:58:54.905Z,23.25
2022-09-03T06:01:27.049Z,22.75
2022-09-03T06:04:16.166Z,24.00
2022-09-03T06:06:45.667Z,23.00
2022-09-03T06:09:35.882Z,22.00
2022-09-03T06:12:03.858Z,21.00
2022-09-03T06:14:31.657Z,21.00
2022-09-03T06:16:58.637Z,22.00
2022-09-03T06:19:25.489Z,23.00
2022-09-03T06:21:52.386Z,22.00
2022-09-03T06:24:22.614Z,23.50
2022-09-03T06:26:53.710Z,23.00
2022-09-03T06:29:20.635Z,23.00
2022-09-03T06:31:48.177Z,23.00
2022-09-03T06:34:15.161Z,23.50
2022-09-03T06:36:43.029Z,22.00
2022-09-03T06:39:09.944Z,21.00
2022-09-03T06:41:36.783Z,22.00
2022-09-03T06:44:06.302Z,24.00
2022-09-03T06:46:36.573Z,23.00
2022-09-03T06:49:03.511Z,24.00
2022-09-03T06:51:32.255Z,23.00
2022-09-03T06:54:05.326Z,22.75
2022-09-03T06:56:37.387Z,23.75
2022-09-03T06:59:09.459Z,22.00
2022-09-03T07:01:37.072Z,22.00
2022-09-03T07:04:05.469Z,22.00
2022-09-03T07:06:37.768Z,23.00
2022-09-03T07:09:13.746Z,22.50
2022-09-03T07:11:41.305Z,25.00
2022-09-03T07:14:08.153Z,24.00
2022-09-03T07:16:37.129Z,23.00
2022-09-03T07:19:05.945Z,23.00
2022-09-03T07:21:34.771Z,22.50
2022-09-03T07:24:01.722Z,23.00
2022-09-03T07:26:33.640Z,22.00
2022-09-03T07:29:00.909Z,23.00
2022-09-03T07:31:34.094Z,23.00
2022-09-03T07:34:25.552Z,24.00
2022-09-03T07:36:53.387Z,23.00
2022-09-03T07:39:24.177Z,22.50
2022-09-03T07:41:51.324Z,23.00
2022-09-03T07:44:19.193Z,24.00
2022-09-03T07:46:46.328Z,22.00
2022-09-03T07:49:13.665Z,22.00
2022-09-03T07:51:40.654Z,23.00
2022-09-03T07:54:10.296Z,24.00
2022-09-03T07:56:38.950Z,23.00
2022-09-03T07:59:06.079Z,24.00
2022-09-03T08:01:34.283Z,23.00
2022-09-03T08:04:02.427Z,23.00
2022-09-03T08:06:30.948Z,23.00
2022-09-03T08:09:04.604Z,24.00
2022-09-03T08:11:34.164Z,23.50
2022-09-03T08:14:15.032Z,23.00
2022-09-03T08:16:45.254Z,23.00
2022-09-03T08:19:12.412Z,23.00
2022-09-03T08:21:40.208Z,23.00
2022-09-03T08:24:07.146Z,24.00
2022-09-03T08:26:40.212Z,24.00
2022-09-03T08:29:07.453Z,24.00
2022-09-03T08:31:35.990Z,23.00
2022-09-03T08:34:05.907Z,23.00
2022-09-03T08:36:38.260Z,23.00
2022-09-03T08:39:07.644Z,24.00
2022-09-03T08:42:04.034Z,24.00
2022-09-03T08:44:30.941Z,23.00
2022-09-03T08:47:16.376Z,23.50
2022-09-03T08:49:52.277Z,24.00
2022-09-03T08:52:41.579Z,25.00
2022-09-03T08:55:24.003Z,24.00
2022-09-03T08:57:57.392Z,24.00
2022-09-03T09:00:25.169Z,26.00
2022-09-03T09:02:55.039Z,25.00
2022-09-03T09:05:51.333Z,25.00
2022-09-03T09:08:35.180Z,24.00
2022-09-03T09:11:25.213Z,24.00
2022-09-03T09:14:34.126Z,24.00
2022-09-03T09:17:18.783Z,24.00
2022-09-03T09:20:07.476Z,24.00
2022-09-03T09:22:39.433Z,24.00
2022-09-03T09:25:13.818Z,24.00
2022-09-03T09:28:00.739Z,25.00
2022-09-03T09:30:33.479Z,25.00
2022-09-03T09:33:00.323Z,24.00
2022-09-03T09:35:27.268Z,24.00
2022-09-03T09:37:56.807Z,25.00
2022-09-03T09:40:28.568Z,24.00
2022-09-03T09:43:16.581Z,24.00
2022-09-03T09:45:46.647Z,25.00
2022-09-03T09:48:20.921Z,24.00
2022-09-03T09:50:48.075Z,24.00
2022-09-03T09:53:18.833Z,24.00
2022-09-03T09:55:57.076Z,25.75
2022-09-03T09:58:27.069Z,24.00
2022-09-03T10:01:00.852Z,24.00
2022-09-03T10:03:27.811Z,25.00
2022-09-03T10:06:09.786Z,24.00
2022-09-03T10:08:36.763Z,24.00
2022-09-03T10:11:04.674Z,24.00
2022-09-03T10:13:42.907Z,24.50
2022-09-03T10:16:25.837Z,24.00
2022-09-03T10:19:19.244Z,24.00
2022-09-03T10:22:16.888Z,23.50
2022-09-03T10:24:59.009Z,24.00
2022-09-03T10:27:26.075Z,24.00
2022-09-03T10:29:52.983Z,24.00
2022-09-03T10:32:38.916Z,24.50
2022-09-03T10:35:29.566Z,24.00
2022-09-03T10:38:24.886Z,25.50
2022-09-03T10:41:30.324Z,25.00
2022-09-03T10:44:14.021Z,24.00
2022-09-03T10:46:54.690Z,23.25
2022-09-03T10:49:56.646Z,23.50
2022-09-03T10:52:52.130Z,24.00
2022-09-03T10:55:37.480Z,24.00
2022-09-03T10:58:52.051Z,24.00
2022-09-03T11:01:41.933Z,24.00
2022-09-03T11:04:18.242Z,24.00
2022-09-03T11:06:56.126Z,24.50
2022-09-03T11:09:38.148Z,24.75
2022-09-03T11:12:10.782Z,24.00
2022-09-03T11:14:43.430Z,25.00
2022-09-03T11:17:27.498Z,24.00
2022-09-03T11:20:17.355Z,23.50
2022-09-03T11:22:46.673Z,23.50
2022-09-03T11:25:16.704Z,23.50
2022-09-03T11:27:56.576Z,24.00
2022-09-03T11:30:31.500Z,25.00
2022-09-03T11:33:09.046Z,24.00
2022-09-03T11:35:35.912Z,24.00
2022-09-03T11:38:17.391Z,24.00
2022-09-03T11:40:59.925Z,25.00
2022-09-03T11:43:30.136Z,25.00
2022-09-03T11:46:27.226Z,24.00
2022-09-03T11:49:14.030Z,24.00
2022-09-03T11:51:41.524Z,23.50
2022-09-03T11:54:14.653Z,24.50
2022-09-03T11:56:42.716Z,24.00
2022-09-03T11:59:12.665Z,24.50
2022-09-03T12:02:01.583Z,25.00
2022-09-03T12:04:43.679Z,24.00
2022-09-03T12:07:22.841Z,24.00
2022-09-03T12:10:12.726Z,24.00
2022-09-03T12:13:04.315Z,24.00
2022-09-03T12:15:41.187Z,24.00
2022-09-03T12:18:12.288Z,24.00
2022-09-03T12:20:40.376Z,25.00
2022-09-03T12:23:07.680Z,25.00
2022-09-03T12:25:34.701Z,24.00
2022-09-03T12:28:12.219Z,24.50
2022-09-03T12:30:39.479Z,24.50
2022-09-03T12:33:08.331Z,25.00
2022-09-03T12:38:26.555Z,25.00
2022-09-03T12:43:50.051Z,25.00
2022-09-03T12:46:17.789Z,24.00
2022-09-03T12:51:55.807Z,25.00
2022-09-03T12:54:25.129Z,24.00
2022-09-03T12:56:58.936Z,24.50
2022-09-03T12:59:29.870Z,24.00
2022-09-03T13:02:01.489Z,24.00
2022-09-03T13:04:34.043Z,24.00
2022-09-03T13:07:11.789Z,24.00
2022-09-03T13:09:41.554Z,25.75
2022-09-03T13:12:23.781Z,24.00
2022-09-03T13:14:53.284Z,24.00
2022-09-03T13:17:47.372Z,24.00
2022-09-03T13:20:40.056Z,25.00
2022-09-03T13:23:50.977Z,25.00
2022-09-03T13:26:25.749Z,24.00
2022-09-03T13:29:14.302Z,24.50
2022-09-03T13:31:49.826Z,26.00
2022-09-03T13:34:43.415Z,24.00
2022-09-03T13:37:34.178Z,24.00
2022-09-03T13:40:13.637Z,24.00
2022-09-03T13:42:44.101Z,25.50
2022-09-03T13:45:29.009Z,24.00
2022-09-03T13:48:05.099Z,24.00
2022-09-03T13:50:42.152Z,24.00
2022-09-03T13:53:41.812Z,24.00
2022-09-03T13:56:30.876Z,24.00
2022-09-03T13:59:13.460Z,23.50
2022-09-03T14:01:46.623Z,25.00
2022-09-03T14:04:22.300Z,24.25
2022-09-03T14:07:18.164Z,25.75
2022-09-03T14:09:56.262Z,25.00
2022-09-03T14:12:37.617Z,28.75
2022-09-03T14:15:25.976Z,28.00
2022-09-03T14:17:58.028Z,32.25
2022-09-03T14:20:39.812Z,32.75
2022-09-03T14:23:29.013Z,29.50
2022-09-03T14:25:58.368Z,26.00
2022-09-03T14:28:33.966Z,26.50
2022-09-03T14:31:26.201Z,25.00
2022-09-03T14:34:04.320Z,25.00
2022-09-03T14:36:57.611Z,24.00
2022-09-03T14:39:59.529Z,23.00
2022-09-03T14:42:41.515Z,24.25
2022-09-03T14:45:33.421Z,25.00
2022-09-03T14:48:30.220Z,25.00
2022-09-03T14:51:30.656Z,26.00
2022-09-03T14:54:23.455Z,25.00
2022-09-03T14:56:54.782Z,28.00
2022-09-03T14:59:34.143Z,29.50
2022-09-03T15:02:28.479Z,28.00
2022-09-03T15:05:34.254Z,29.00
2022-09-03T15:08:24.287Z,29.50
2022-09-03T15:11:10.699Z,36.00
2022-09-03T15:13:52.017Z,30.75
2022-09-03T15:16:41.733Z,28.00
2022-09-03T15:19:27.367Z,30.00
2022-09-03T15:22:21.917Z,31.50
2022-09-03T15:25:19.435Z,27.25
2022-09-03T15:28:10.037Z,25.00
2022-09-03T15:31:01.297Z,25.00
2022-09-03T15:33:39.368Z,24.25
2022-09-03T15:36:27.015Z,23.00
2022-09-03T15:39:02.851Z,24.75
2022-09-03T15:41:48.379Z,25.00
2022-09-03T15:44:19.603Z,25.00
2022-09-03T15:46:58.863Z,25.00
2022-09-03T15:49:44.964Z,25.00
2022-09-03T15:52:39.004Z,25.00
2022-09-03T15:55:24.408Z,25.00
2022-09-03T15:58:11.731Z,25.00
2022-09-03T16:00:53.558Z,25.00
2022-09-03T16:03:35.445Z,25.00
2022-09-03T16:06:16.914Z,25.00
2022-09-03T16:09:02.058Z,25.00
2022-09-03T16:11:50.761Z,25.00
2022-09-03T16:14:17.583Z,24.50
2022-09-03T16:17:26.357Z,24.50
2022-09-03T16:20:21.060Z,25.00
2022-09-03T16:23:10.381Z,26.00
2022-09-03T16:25:53.492Z,26.25
2022-09-03T16:28:25.061Z,25.00
2022-09-03T16:30:57.977Z,26.50
2022-09-03T16:33:34.369Z,27.50
2022-09-03T16:36:39.398Z,27.00
2022-09-03T16:39:17.010Z,29.50
2022-09-03T16:41:51.352Z,31.75
2022-09-03T16:44:36.974Z,30.00
2022-09-03T16:47:09.748Z,32.50
2022-09-03T16:49:59.713Z,32.50
2022-09-03T16:52:38.827Z,30.00
2022-09-03T16:55:13.800Z,30.00
2022-09-03T16:57:51.270Z,29.00
2022-09-03T17:00:21.852Z,29.50
2022-09-03T17:02:58.588Z,28.00
2022-09-03T17:05:47.364Z,24.50
2022-09-03T17:08:37.140Z,24.00
2022-09-03T17:11:19.550Z,24.50
2022-09-03T17:14:24.004Z,24.00
2022-09-03T17:17:19.435Z,26.00
2022-09-03T17:20:02.043Z,28.50
2022-09-03T17:23:09.135Z,28.25
2022-09-03T17:25:39.939Z,24.00
2022-09-03T17:28:25.879Z,24.00
2022-09-03T17:30:58.767Z,23.00
2022-09-03T17:34:07.286Z,22.00
2022-09-03T17:36:38.836Z,22.00
2022-09-03T17:39:26.174Z,22.75
2022-09-03T17:41:56.076Z,23.00
2022-09-03T17:44:47.401Z,23.00
2022-09-03T17:47:32.960Z,23.00
2022-09-03T17:50:24.937Z,23.75
2022-09-03T17:53:02.164Z,24.00
2022-09-03T17:55:50.892Z,23.50
2022-09-03T17:58:33.715Z,23.50
2022-09-03T18:01:18.402Z,25.00
2022-09-03T18:04:05.457Z,25.00
2022-09-03T18:07:00.112Z,23.50
2022-09-03T18:09:38.002Z,25.00
2022-09-03T18:12:28.587Z,23.00
2022-09-03T18:15:20.651Z,24.00
2022-09-03T18:18:08.541Z,23.00
2022-09-03T18:21:08.580Z,23.00
2022-09-03T18:23:52.679Z,23.25
2022-09-03T18:26:29.954Z,24.00
2022-09-03T18:28:57.161Z,23.00
2022-09-03T18:31:24.088Z,24.00
2022-09-03T18:33:51.364Z,22.00
2022-09-03T18:36:18.477Z,24.00
2022-09-03T18:38:45.384Z,23.00
2022-09-03T18:41:12.449Z,24.00
2022-09-03T18:43:46.754Z,22.00
2022-09-03T18:47:22.617Z,22.50
2022-09-03T18:49:59.451Z,22.00
2022-09-03T18:52:47.800Z,22.00
2022-09-03T18:55:30.020Z,21.75
2022-09-03T18:58:20.987Z,22.00
2022-09-03T19:01:15.024Z,23.50
2022-09-03T19:04:13.449Z,23.00
2022-09-03T19:07:00.600Z,24.00
2022-09-03T19:09:52.564Z,25.75
2022-09-03T19:12:51.784Z,26.00
2022-09-03T19:15:33.187Z,26.75
2022-09-03T19:18:26.557Z,28.75
2022-09-03T19:21:16.489Z,29.00
2022-09-03T19:23:46.061Z,29.00
2022-09-03T19:26:32.069Z,28.25
2022-09-03T19:29:08.038Z,29.00
2022-09-03T19:32:11.868Z,26.00
2022-09-03T19:35:17.968Z,26.00
2022-09-03T19:38:22.321Z,26.00
2022-09-03T19:41:04.634Z,26.00
2022-09-03T19:44:00.518Z,24.75
2022-09-03T19:46:40.383Z,23.00
2022-09-03T19:49:36.365Z,24.00
2022-09-03T19:52:11.531Z,23.50
2022-09-03T19:54:39.544Z,23.75
2022-09-03T19:57:06.752Z,25.50
2022-09-03T19:59:43.218Z,25.00
2022-09-03T20:02:10.833Z,25.00
2022-09-03T20:04:51.837Z,23.00
2022-09-03T20:07:20.893Z,23.00
2022-09-03T20:09:49.724Z,23.00
2022-09-03T20:12:19.885Z,23.00
2022-09-03T20:14:47.294Z,22.00
2022-09-03T20:17:14.059Z,24.00
2022-09-03T20:20:15.380Z,23.50
2022-09-03T20:23:00.116Z,23.00
2022-09-03T20:25:52.204Z,22.00
2022-09-03T20:28:37.832Z,23.50
2022-09-03T20:31:25.891Z,23.00
2022-09-03T20:34:28.031Z,22.00
2022-09-03T20:37:42.727Z,23.50
2022-09-03T20:40:34.284Z,23.00
2022-09-03T20:43:58.829Z,24.00
2022-09-03T20:46:34.763Z,23.00
2022-09-03T20:49:11.624Z,22.00
2022-09-03T20:52:06.441Z,24.00
2022-09-03T20:54:43.192Z,23.00
2022-09-03T20:57:42.903Z,23.00
2022-09-03T21:00:13.277Z,22.00
2022-09-03T21:03:24.644Z,22.00
2022-09-03T21:06:25.768Z,22.00
2022-09-03T21:09:11.112Z,22.00
2022-09-03T21:11:46.961Z,22.00
2022-09-03T21:14:37.033Z,22.00
2022-09-03T21:17:50.664Z,23.00
2022-09-03T21:20:17.805Z,22.00
2022-09-03T21:22:59.051Z,22.00
2022-09-03T21:26:04.148Z,23.00
2022-09-03T21:28:39.875Z,21.00
2022-09-03T21:31:23.801Z,20.00
2022-09-03T21:33:58.521Z,21.75
2022-09-03T21:36:46.627Z,21.00
2022-09-03T21:39:30.896Z,21.50
2022-09-03T21:42:06.456Z,22.00
2022-09-03T21:44:39.153Z,20.00
2022-09-03T21:47:17.957Z,20.75
2022-09-03T21:49:52.908Z,20.00
2022-09-03T21:52:25.401Z,22.00
2022-09-03T21:54:52.262Z,21.00
2022-09-03T21:57:37.816Z,20.00
2022-09-03T22:00:15.949Z,22.00
2022-09-03T22:02:42.932Z,22.00
2022-09-03T22:05:13.604Z,21.00
2022-09-03T22:08:04.801Z,21.75
2022-09-03T22:10:47.605Z,22.00
2022-09-03T22:13:35.836Z,22.00
2022-09-03T22:16:45.986Z,22.00
2022-09-03T22:19:13.398Z,20.00
2022-09-03T22:21:47.749Z,21.50
2022-09-03T22:24:25.745Z,22.00
2022-09-03T22:27:11.587Z,22.00
2022-09-03T22:29:53.152Z,22.00
2022-09-03T22:32:46.259Z,20.00
2022-09-03T22:35:25.026Z,21.75
2022-09-03T22:38:20.868Z,21.00
2022-09-03T22:41:09.976Z,21.00
2022-09-03T22:43:44.129Z,23.00
2022-09-03T22:46:14.806Z,22.50
2022-09-03T22:48:56.436Z,23.00
2022-09-03T22:51:24.072Z,22.00
2022-09-03T22:54:03.529Z,21.00
2022-09-03T22:56:36.682Z,21.00
2022-09-03T22:59:38.177Z,20.00
2022-09-03T23:02:14.186Z,19.50
2022-09-03T23:04:58.593Z,20.50
2022-09-03T23:07:48.499Z,22.00
2022-09-03T23:10:25.596Z,22.00
2022-09-03T23:13:16.604Z,22.00
2022-09-03T23:15:47.429Z,22.00
2022-09-03T23:18:18.274Z,20.00
2022-09-03T23:20:58.723Z,22.00
2022-09-03T23:23:36.903Z,22.00
2022-09-03T23:26:32.212Z,22.00
2022-09-03T23:29:19.447Z,20.00
2022-09-03T23:31:46.405Z,21.25
2022-09-03T23:34:13.319Z,19.50
2022-09-03T23:40:05.159Z,20.00
2022-09-03T23:43:02.892Z,22.00
2022-09-03T23:46:07.075Z,20.00
2022-09-03T23:49:03.203Z,19.00
2022-09-03T23:51:57.516Z,20.00
2022-09-03T23:54:30.511Z,22.00
2022-09-03T23:57:23.768Z,21.00
